sensor_id;sensor_type;location;lat;lon;timestamp;P1;durP1;ratioP1;P2;durP2;ratioP2
60919;SDS011;59039;52.108;19.942;2023-07-29T00:01:34;8.50;;;5.90;;
60919;SDS011;59039;52.108;19.942;2023-07-29T00:04:00;9.40;;;6.40;;
60919;SDS011;59039;52.108;19.942;2023-07-29T00:06:26;7.10;;;6.30;;
60919;SDS011;59039;52.108;19.942;2023-07-29T00:08:51;7.40;;;6.40;;
60919;SDS011;59039;52.108;19.942;2023-07-29T00:11:17;8.70;;;6.70;;
60919;SDS011;59039;52.108;19.942;2023-07-29T00:13:42;8.30;;;6.20;;
60919;SDS011;59039;52.108;19.942;2023-07-29T00:16:07;8.20;;;6.60;;
60919;SDS011;59039;52.108;19.942;2023-07-29T00:18:32;7.90;;;6.20;;
60919;SDS011;59039;52.108;19.942;2023-07-29T00:20:58;10.00;;;6.80;;
60919;SDS011;59039;52.108;19.942;2023-07-29T00:23:23;8.20;;;6.30;;
60919;SDS011;59039;52.108;19.942;2023-07-29T00:25:48;7.50;;;6.30;;
60919;SDS011;59039;52.108;19.942;2023-07-29T00:28:13;9.20;;;6.70;;
60919;SDS011;59039;52.108;19.942;2023-07-29T00:30:39;9.60;;;6.40;;
60919;SDS011;59039;52.108;19.942;2023-07-29T00:33:04;9.50;;;7.00;;
60919;SDS011;59039;52.108;19.942;2023-07-29T00:35:29;8.60;;;6.80;;
60919;SDS011;59039;52.108;19.942;2023-07-29T00:37:54;8.20;;;6.90;;
60919;SDS011;59039;52.108;19.942;2023-07-29T00:40:21;7.70;;;6.30;;
60919;SDS011;59039;52.108;19.942;2023-07-29T00:42:47;8.70;;;6.90;;
60919;SDS011;59039;52.108;19.942;2023-07-29T00:45:13;7.50;;;6.70;;
60919;SDS011;59039;52.108;19.942;2023-07-29T00:47:38;10.20;;;7.00;;
60919;SDS011;59039;52.108;19.942;2023-07-29T00:50:05;9.80;;;6.70;;
60919;SDS011;59039;52.108;19.942;2023-07-29T00:52:31;8.00;;;6.20;;
60919;SDS011;59039;52.108;19.942;2023-07-29T00:54:57;8.40;;;6.90;;
60919;SDS011;59039;52.108;19.942;2023-07-29T00:57:22;7.80;;;6.80;;
60919;SDS011;59039;52.108;19.942;2023-07-29T00:59:48;8.50;;;5.90;;
60919;SDS011;59039;52.108;19.942;2023-07-29T01:02:14;8.40;;;6.20;;
60919;SDS011;59039;52.108;19.942;2023-07-29T01:04:39;6.90;;;6.10;;
60919;SDS011;59039;52.108;19.942;2023-07-29T01:07:14;8.60;;;6.40;;
60919;SDS011;59039;52.108;19.942;2023-07-29T01:15:38;7.70;;;6.20;;
60919;SDS011;59039;52.108;19.942;2023-07-29T01:18:11;8.20;;;6.70;;
60919;SDS011;59039;52.108;19.942;2023-07-29T01:20:45;10.00;;;5.80;;
60919;SDS011;59039;52.108;19.942;2023-07-29T01:23:12;8.30;;;6.00;;
60919;SDS011;59039;52.108;19.942;2023-07-29T01:25:37;7.40;;;6.30;;
60919;SDS011;59039;52.108;19.942;2023-07-29T01:28:03;7.50;;;6.70;;
60919;SDS011;59039;52.108;19.942;2023-07-29T01:30:30;8.10;;;6.80;;
60919;SDS011;59039;52.108;19.942;2023-07-29T01:35:48;7.20;;;6.50;;
60919;SDS011;59039;52.108;19.942;2023-07-29T01:38:18;8.60;;;6.30;;
60919;SDS011;59039;52.108;19.942;2023-07-29T01:40:44;7.80;;;6.70;;
60919;SDS011;59039;52.108;19.942;2023-07-29T01:43:10;7.00;;;5.90;;
60919;SDS011;59039;52.108;19.942;2023-07-29T01:45:36;8.00;;;6.40;;
60919;SDS011;59039;52.108;19.942;2023-07-29T01:48:02;8.40;;;6.40;;
60919;SDS011;59039;52.108;19.942;2023-07-29T01:50:27;8.60;;;6.30;;
60919;SDS011;59039;52.108;19.942;2023-07-29T01:52:52;7.90;;;6.60;;
60919;SDS011;59039;52.108;19.942;2023-07-29T01:55:17;9.00;;;6.20;;
60919;SDS011;59039;52.108;19.942;2023-07-29T01:57:43;7.90;;;6.60;;
60919;SDS011;59039;52.108;19.942;2023-07-29T02:00:08;7.20;;;5.90;;
60919;SDS011;59039;52.108;19.942;2023-07-29T02:02:33;6.80;;;6.10;;
60919;SDS011;59039;52.108;19.942;2023-07-29T02:04:59;7.10;;;5.70;;
60919;SDS011;59039;52.108;19.942;2023-07-29T02:07:24;9.00;;;6.20;;
60919;SDS011;59039;52.108;19.942;2023-07-29T02:09:49;7.40;;;6.20;;
60919;SDS011;59039;52.108;19.942;2023-07-29T02:12:14;6.60;;;5.90;;
60919;SDS011;59039;52.108;19.942;2023-07-29T02:14:39;8.20;;;6.70;;
60919;SDS011;59039;52.108;19.942;2023-07-29T02:17:05;7.30;;;5.80;;
60919;SDS011;59039;52.108;19.942;2023-07-29T02:19:30;7.70;;;5.90;;
60919;SDS011;59039;52.108;19.942;2023-07-29T02:21:55;8.10;;;6.80;;
60919;SDS011;59039;52.108;19.942;2023-07-29T02:24:20;8.30;;;6.80;;
60919;SDS011;59039;52.108;19.942;2023-07-29T02:26:46;8.00;;;6.60;;
60919;SDS011;59039;52.108;19.942;2023-07-29T02:29:11;6.50;;;5.80;;
60919;SDS011;59039;52.108;19.942;2023-07-29T02:31:36;6.90;;;4.90;;
60919;SDS011;59039;52.108;19.942;2023-07-29T02:34:01;6.60;;;5.70;;
60919;SDS011;59039;52.108;19.942;2023-07-29T02:36:26;9.00;;;5.80;;
60919;SDS011;59039;52.108;19.942;2023-07-29T02:38:52;7.10;;;6.00;;
60919;SDS011;59039;52.108;19.942;2023-07-29T02:41:17;7.50;;;5.80;;
60919;SDS011;59039;52.108;19.942;2023-07-29T02:43:42;8.00;;;6.10;;
60919;SDS011;59039;52.108;19.942;2023-07-29T02:46:08;6.50;;;5.80;;
60919;SDS011;59039;52.108;19.942;2023-07-29T02:48:34;9.60;;;6.20;;
60919;SDS011;59039;52.108;19.942;2023-07-29T02:50:59;7.80;;;6.70;;
60919;SDS011;59039;52.108;19.942;2023-07-29T02:53:24;8.80;;;6.60;;
60919;SDS011;59039;52.108;19.942;2023-07-29T02:55:50;7.30;;;6.50;;
60919;SDS011;59039;52.108;19.942;2023-07-29T02:58:15;8.80;;;7.40;;
60919;SDS011;59039;52.108;19.942;2023-07-29T03:00:40;8.20;;;6.60;;
60919;SDS011;59039;52.108;19.942;2023-07-29T03:03:06;8.10;;;7.20;;
60919;SDS011;59039;52.108;19.942;2023-07-29T03:05:31;9.10;;;7.10;;
60919;SDS011;59039;52.108;19.942;2023-07-29T03:07:57;9.20;;;7.30;;
60919;SDS011;59039;52.108;19.942;2023-07-29T03:10:22;10.00;;;8.40;;
60919;SDS011;59039;52.108;19.942;2023-07-29T03:12:47;10.50;;;8.20;;
60919;SDS011;59039;52.108;19.942;2023-07-29T03:15:13;9.90;;;7.80;;
60919;SDS011;59039;52.108;19.942;2023-07-29T03:17:38;9.00;;;7.90;;
60919;SDS011;59039;52.108;19.942;2023-07-29T03:20:03;10.10;;;8.20;;
60919;SDS011;59039;52.108;19.942;2023-07-29T03:22:29;12.10;;;9.40;;
60919;SDS011;59039;52.108;19.942;2023-07-29T03:24:54;11.00;;;8.30;;
60919;SDS011;59039;52.108;19.942;2023-07-29T03:27:19;10.40;;;8.50;;
60919;SDS011;59039;52.108;19.942;2023-07-29T03:29:44;11.20;;;8.70;;
60919;SDS011;59039;52.108;19.942;2023-07-29T03:32:10;10.90;;;8.60;;
60919;SDS011;59039;52.108;19.942;2023-07-29T03:34:36;11.60;;;8.80;;
60919;SDS011;59039;52.108;19.942;2023-07-29T03:37:01;10.80;;;9.00;;
60919;SDS011;59039;52.108;19.942;2023-07-29T03:39:26;12.00;;;9.40;;
60919;SDS011;59039;52.108;19.942;2023-07-29T03:41:52;10.50;;;8.40;;
60919;SDS011;59039;52.108;19.942;2023-07-29T03:44:17;12.60;;;9.00;;
60919;SDS011;59039;52.108;19.942;2023-07-29T03:46:42;13.20;;;9.60;;
60919;SDS011;59039;52.108;19.942;2023-07-29T03:49:07;10.40;;;8.40;;
60919;SDS011;59039;52.108;19.942;2023-07-29T03:51:33;13.20;;;9.00;;
60919;SDS011;59039;52.108;19.942;2023-07-29T03:53:58;11.80;;;8.80;;
60919;SDS011;59039;52.108;19.942;2023-07-29T03:56:23;11.90;;;9.00;;
60919;SDS011;59039;52.108;19.942;2023-07-29T03:58:48;11.80;;;9.00;;
60919;SDS011;59039;52.108;19.942;2023-07-29T04:01:14;10.90;;;8.30;;
60919;SDS011;59039;52.108;19.942;2023-07-29T04:03:39;9.60;;;8.60;;
60919;SDS011;59039;52.108;19.942;2023-07-29T04:06:04;10.20;;;8.30;;
60919;SDS011;59039;52.108;19.942;2023-07-29T04:08:29;9.80;;;8.80;;
60919;SDS011;59039;52.108;19.942;2023-07-29T04:10:54;12.10;;;9.10;;
60919;SDS011;59039;52.108;19.942;2023-07-29T04:13:20;10.50;;;9.20;;
60919;SDS011;59039;52.108;19.942;2023-07-29T04:15:45;13.00;;;9.60;;
60919;SDS011;59039;52.108;19.942;2023-07-29T04:18:10;11.30;;;8.60;;
60919;SDS011;59039;52.108;19.942;2023-07-29T04:20:36;9.50;;;8.20;;
60919;SDS011;59039;52.108;19.942;2023-07-29T04:23:01;12.20;;;8.40;;
60919;SDS011;59039;52.108;19.942;2023-07-29T04:25:27;13.40;;;8.80;;
60919;SDS011;59039;52.108;19.942;2023-07-29T04:27:52;11.00;;;8.50;;
60919;SDS011;59039;52.108;19.942;2023-07-29T04:30:17;12.20;;;9.20;;
60919;SDS011;59039;52.108;19.942;2023-07-29T04:32:43;12.50;;;8.80;;
60919;SDS011;59039;52.108;19.942;2023-07-29T04:35:08;12.20;;;8.60;;
60919;SDS011;59039;52.108;19.942;2023-07-29T04:37:33;11.00;;;8.60;;
60919;SDS011;59039;52.108;19.942;2023-07-29T04:39:59;11.90;;;7.90;;
60919;SDS011;59039;52.108;19.942;2023-07-29T04:42:24;10.10;;;8.20;;
60919;SDS011;59039;52.108;19.942;2023-07-29T04:44:49;9.40;;;7.80;;
60919;SDS011;59039;52.108;19.942;2023-07-29T04:47:14;10.20;;;7.50;;
60919;SDS011;59039;52.108;19.942;2023-07-29T04:49:39;12.50;;;8.60;;
60919;SDS011;59039;52.108;19.942;2023-07-29T04:52:05;9.80;;;7.90;;
60919;SDS011;59039;52.108;19.942;2023-07-29T04:54:30;13.60;;;8.30;;
60919;SDS011;59039;52.108;19.942;2023-07-29T04:56:56;12.10;;;8.20;;
60919;SDS011;59039;52.108;19.942;2023-07-29T04:59:21;10.70;;;8.00;;
60919;SDS011;59039;52.108;19.942;2023-07-29T05:01:46;10.80;;;8.40;;
60919;SDS011;59039;52.108;19.942;2023-07-29T05:04:11;10.70;;;8.10;;
60919;SDS011;59039;52.108;19.942;2023-07-29T05:06:36;10.40;;;7.70;;
60919;SDS011;59039;52.108;19.942;2023-07-29T05:09:17;9.80;;;7.50;;
60919;SDS011;59039;52.108;19.942;2023-07-29T05:11:43;11.10;;;6.90;;
60919;SDS011;59039;52.108;19.942;2023-07-29T05:14:09;10.70;;;7.80;;
60919;SDS011;59039;52.108;19.942;2023-07-29T05:16:34;10.60;;;7.40;;
60919;SDS011;59039;52.108;19.942;2023-07-29T05:18:59;9.80;;;7.20;;
60919;SDS011;59039;52.108;19.942;2023-07-29T05:21:25;10.20;;;7.70;;
60919;SDS011;59039;52.108;19.942;2023-07-29T05:23:50;9.30;;;7.50;;
60919;SDS011;59039;52.108;19.942;2023-07-29T05:26:15;9.90;;;7.40;;
60919;SDS011;59039;52.108;19.942;2023-07-29T05:28:40;10.20;;;7.50;;
60919;SDS011;59039;52.108;19.942;2023-07-29T05:31:05;10.50;;;7.40;;
60919;SDS011;59039;52.108;19.942;2023-07-29T05:33:31;10.40;;;7.70;;
60919;SDS011;59039;52.108;19.942;2023-07-29T05:35:56;8.50;;;7.50;;
60919;SDS011;59039;52.108;19.942;2023-07-29T05:38:21;12.70;;;8.40;;
60919;SDS011;59039;52.108;19.942;2023-07-29T05:40:47;9.40;;;7.20;;
60919;SDS011;59039;52.108;19.942;2023-07-29T05:43:13;8.20;;;7.30;;
60919;SDS011;59039;52.108;19.942;2023-07-29T05:45:38;10.50;;;7.20;;
60919;SDS011;59039;52.108;19.942;2023-07-29T05:48:04;10.10;;;6.80;;
60919;SDS011;59039;52.108;19.942;2023-07-29T05:50:29;8.20;;;6.80;;
60919;SDS011;59039;52.108;19.942;2023-07-29T05:52:54;8.60;;;7.20;;
60919;SDS011;59039;52.108;19.942;2023-07-29T05:55:19;10.30;;;7.40;;
60919;SDS011;59039;52.108;19.942;2023-07-29T05:57:44;9.20;;;7.60;;
60919;SDS011;59039;52.108;19.942;2023-07-29T06:00:10;10.50;;;6.90;;
60919;SDS011;59039;52.108;19.942;2023-07-29T06:02:36;10.00;;;7.60;;
60919;SDS011;59039;52.108;19.942;2023-07-29T06:05:01;9.30;;;7.30;;
60919;SDS011;59039;52.108;19.942;2023-07-29T06:07:26;8.50;;;6.80;;
60919;SDS011;59039;52.108;19.942;2023-07-29T06:09:51;8.60;;;7.60;;
60919;SDS011;59039;52.108;19.942;2023-07-29T06:12:16;8.20;;;6.70;;
60919;SDS011;59039;52.108;19.942;2023-07-29T06:14:42;7.30;;;6.60;;
60919;SDS011;59039;52.108;19.942;2023-07-29T06:17:07;7.40;;;6.40;;
60919;SDS011;59039;52.108;19.942;2023-07-29T06:19:32;9.40;;;6.30;;
60919;SDS011;59039;52.108;19.942;2023-07-29T06:21:57;6.40;;;5.60;;
60919;SDS011;59039;52.108;19.942;2023-07-29T06:24:22;8.40;;;5.90;;
60919;SDS011;59039;52.108;19.942;2023-07-29T06:26:48;6.90;;;5.40;;
60919;SDS011;59039;52.108;19.942;2023-07-29T06:29:13;5.70;;;5.10;;
60919;SDS011;59039;52.108;19.942;2023-07-29T06:31:38;6.30;;;5.50;;
60919;SDS011;59039;52.108;19.942;2023-07-29T06:34:03;7.10;;;6.00;;
60919;SDS011;59039;52.108;19.942;2023-07-29T06:36:28;7.70;;;5.60;;
60919;SDS011;59039;52.108;19.942;2023-07-29T06:38:54;6.30;;;4.60;;
60919;SDS011;59039;52.108;19.942;2023-07-29T06:41:19;5.90;;;5.10;;
60919;SDS011;59039;52.108;19.942;2023-07-29T06:43:44;7.50;;;5.10;;
60919;SDS011;59039;52.108;19.942;2023-07-29T06:46:09;5.80;;;4.80;;
60919;SDS011;59039;52.108;19.942;2023-07-29T06:48:34;6.20;;;4.80;;
60919;SDS011;59039;52.108;19.942;2023-07-29T06:51:00;6.40;;;4.30;;
60919;SDS011;59039;52.108;19.942;2023-07-29T06:53:25;5.10;;;4.60;;
60919;SDS011;59039;52.108;19.942;2023-07-29T06:55:50;7.90;;;4.90;;
60919;SDS011;59039;52.108;19.942;2023-07-29T06:58:15;8.10;;;5.30;;
60919;SDS011;59039;52.108;19.942;2023-07-29T07:00:40;7.00;;;4.80;;
60919;SDS011;59039;52.108;19.942;2023-07-29T07:03:06;5.80;;;4.50;;
60919;SDS011;59039;52.108;19.942;2023-07-29T07:05:31;5.50;;;4.20;;
60919;SDS011;59039;52.108;19.942;2023-07-29T07:07:56;5.00;;;3.90;;
60919;SDS011;59039;52.108;19.942;2023-07-29T07:10:21;4.10;;;3.70;;
60919;SDS011;59039;52.108;19.942;2023-07-29T07:12:47;5.20;;;4.00;;
60919;SDS011;59039;52.108;19.942;2023-07-29T07:15:12;5.10;;;3.60;;
60919;SDS011;59039;52.108;19.942;2023-07-29T07:17:38;4.40;;;3.90;;
60919;SDS011;59039;52.108;19.942;2023-07-29T07:20:03;4.60;;;4.00;;
60919;SDS011;59039;52.108;19.942;2023-07-29T07:22:29;5.90;;;4.00;;
60919;SDS011;59039;52.108;19.942;2023-07-29T07:24:54;6.10;;;3.90;;
60919;SDS011;59039;52.108;19.942;2023-07-29T07:27:19;4.40;;;4.00;;
60919;SDS011;59039;52.108;19.942;2023-07-29T07:29:44;5.00;;;3.30;;
60919;SDS011;59039;52.108;19.942;2023-07-29T07:32:09;4.30;;;3.80;;
60919;SDS011;59039;52.108;19.942;2023-07-29T07:34:35;4.30;;;3.50;;
60919;SDS011;59039;52.108;19.942;2023-07-29T07:37:00;4.30;;;3.50;;
60919;SDS011;59039;52.108;19.942;2023-07-29T07:39:25;4.00;;;3.40;;
60919;SDS011;59039;52.108;19.942;2023-07-29T07:41:51;4.30;;;3.50;;
60919;SDS011;59039;52.108;19.942;2023-07-29T07:44:16;4.00;;;3.20;;
60919;SDS011;59039;52.108;19.942;2023-07-29T07:46:41;5.40;;;3.80;;
60919;SDS011;59039;52.108;19.942;2023-07-29T07:49:06;5.10;;;3.80;;
60919;SDS011;59039;52.108;19.942;2023-07-29T07:51:31;4.30;;;3.30;;
60919;SDS011;59039;52.108;19.942;2023-07-29T07:53:57;4.20;;;3.60;;
60919;SDS011;59039;52.108;19.942;2023-07-29T07:56:22;3.60;;;3.00;;
60919;SDS011;59039;52.108;19.942;2023-07-29T07:58:47;4.10;;;3.20;;
60919;SDS011;59039;52.108;19.942;2023-07-29T08:01:13;3.80;;;3.30;;
60919;SDS011;59039;52.108;19.942;2023-07-29T08:03:38;5.00;;;3.20;;
60919;SDS011;59039;52.108;19.942;2023-07-29T08:06:03;3.80;;;3.00;;
60919;SDS011;59039;52.108;19.942;2023-07-29T08:08:29;4.10;;;3.30;;
60919;SDS011;59039;52.108;19.942;2023-07-29T08:10:54;3.80;;;3.20;;
60919;SDS011;59039;52.108;19.942;2023-07-29T08:13:24;5.10;;;2.90;;
60919;SDS011;59039;52.108;19.942;2023-07-29T08:15:50;4.20;;;3.20;;
60919;SDS011;59039;52.108;19.942;2023-07-29T08:18:17;3.50;;;2.90;;
60919;SDS011;59039;52.108;19.942;2023-07-29T08:20:52;4.50;;;3.00;;
60919;SDS011;59039;52.108;19.942;2023-07-29T08:23:25;3.10;;;2.70;;
60919;SDS011;59039;52.108;19.942;2023-07-29T08:25:54;4.50;;;3.30;;
60919;SDS011;59039;52.108;19.942;2023-07-29T08:28:20;4.20;;;3.00;;
60919;SDS011;59039;52.108;19.942;2023-07-29T08:30:45;3.40;;;2.60;;
60919;SDS011;59039;52.108;19.942;2023-07-29T08:33:10;5.10;;;2.90;;
60919;SDS011;59039;52.108;19.942;2023-07-29T08:35:35;4.30;;;3.20;;
60919;SDS011;59039;52.108;19.942;2023-07-29T08:38:01;5.90;;;3.30;;
60919;SDS011;59039;52.108;19.942;2023-07-29T08:40:27;4.40;;;2.60;;
60919;SDS011;59039;52.108;19.942;2023-07-29T08:42:54;5.20;;;2.80;;
60919;SDS011;59039;52.108;19.942;2023-07-29T08:45:21;3.10;;;2.80;;
60919;SDS011;59039;52.108;19.942;2023-07-29T08:47:48;3.60;;;2.70;;
60919;SDS011;59039;52.108;19.942;2023-07-29T08:50:19;4.20;;;3.10;;
60919;SDS011;59039;52.108;19.942;2023-07-29T08:52:46;3.70;;;2.90;;
60919;SDS011;59039;52.108;19.942;2023-07-29T08:55:14;2.90;;;2.40;;
60919;SDS011;59039;52.108;19.942;2023-07-29T08:57:39;3.50;;;2.30;;
60919;SDS011;59039;52.108;19.942;2023-07-29T09:00:04;3.50;;;2.40;;
60919;SDS011;59039;52.108;19.942;2023-07-29T09:02:30;4.20;;;2.10;;
60919;SDS011;59039;52.108;19.942;2023-07-29T09:04:56;3.00;;;2.60;;
60919;SDS011;59039;52.108;19.942;2023-07-29T09:07:21;3.10;;;2.50;;
60919;SDS011;59039;52.108;19.942;2023-07-29T09:09:47;3.00;;;2.40;;
60919;SDS011;59039;52.108;19.942;2023-07-29T09:12:12;2.20;;;2.00;;
60919;SDS011;59039;52.108;19.942;2023-07-29T09:14:37;4.80;;;2.60;;
60919;SDS011;59039;52.108;19.942;2023-07-29T09:17:03;3.80;;;2.30;;
60919;SDS011;59039;52.108;19.942;2023-07-29T09:19:32;3.60;;;2.50;;
60919;SDS011;59039;52.108;19.942;2023-07-29T09:21:58;3.00;;;2.30;;
60919;SDS011;59039;52.108;19.942;2023-07-29T09:24:23;3.10;;;2.40;;
60919;SDS011;59039;52.108;19.942;2023-07-29T09:26:49;3.60;;;2.50;;
60919;SDS011;59039;52.108;19.942;2023-07-29T09:29:15;3.70;;;2.60;;
60919;SDS011;59039;52.108;19.942;2023-07-29T09:31:40;2.50;;;1.90;;
60919;SDS011;59039;52.108;19.942;2023-07-29T09:34:05;2.30;;;2.10;;
60919;SDS011;59039;52.108;19.942;2023-07-29T09:36:31;4.30;;;2.50;;
60919;SDS011;59039;52.108;19.942;2023-07-29T09:38:58;2.40;;;2.20;;
60919;SDS011;59039;52.108;19.942;2023-07-29T09:41:27;3.80;;;2.40;;
60919;SDS011;59039;52.108;19.942;2023-07-29T09:43:57;2.50;;;2.10;;
60919;SDS011;59039;52.108;19.942;2023-07-29T09:46:32;2.40;;;2.20;;
60919;SDS011;59039;52.108;19.942;2023-07-29T09:49:04;2.70;;;2.30;;
60919;SDS011;59039;52.108;19.942;2023-07-29T09:51:31;3.10;;;2.70;;
60919;SDS011;59039;52.108;19.942;2023-07-29T09:53:56;3.10;;;2.60;;
60919;SDS011;59039;52.108;19.942;2023-07-29T09:56:25;3.30;;;2.20;;
60919;SDS011;59039;52.108;19.942;2023-07-29T09:58:51;2.60;;;2.30;;
60919;SDS011;59039;52.108;19.942;2023-07-29T10:01:17;3.40;;;2.40;;
60919;SDS011;59039;52.108;19.942;2023-07-29T10:03:42;4.10;;;2.30;;
60919;SDS011;59039;52.108;19.942;2023-07-29T10:06:09;4.50;;;2.30;;
60919;SDS011;59039;52.108;19.942;2023-07-29T10:08:35;2.70;;;2.40;;
60919;SDS011;59039;52.108;19.942;2023-07-29T10:11:01;2.80;;;2.20;;
60919;SDS011;59039;52.108;19.942;2023-07-29T10:13:27;2.70;;;2.10;;
60919;SDS011;59039;52.108;19.942;2023-07-29T10:15:56;3.80;;;2.00;;
60919;SDS011;59039;52.108;19.942;2023-07-29T10:18:22;2.60;;;2.20;;
60919;SDS011;59039;52.108;19.942;2023-07-29T10:20:49;2.60;;;2.30;;
60919;SDS011;59039;52.108;19.942;2023-07-29T10:23:16;2.70;;;2.10;;
60919;SDS011;59039;52.108;19.942;2023-07-29T10:25:43;2.50;;;2.30;;
60919;SDS011;59039;52.108;19.942;2023-07-29T10:28:12;3.10;;;2.20;;
60919;SDS011;59039;52.108;19.942;2023-07-29T10:30:40;3.00;;;2.40;;
60919;SDS011;59039;52.108;19.942;2023-07-29T10:33:06;2.70;;;2.20;;
60919;SDS011;59039;52.108;19.942;2023-07-29T10:35:32;2.70;;;2.40;;
60919;SDS011;59039;52.108;19.942;2023-07-29T10:37:59;3.30;;;2.30;;
60919;SDS011;59039;52.108;19.942;2023-07-29T10:40:25;3.00;;;2.70;;
60919;SDS011;59039;52.108;19.942;2023-07-29T10:43:06;3.20;;;2.60;;
60919;SDS011;59039;52.108;19.942;2023-07-29T10:45:38;3.20;;;2.20;;
60919;SDS011;59039;52.108;19.942;2023-07-29T10:48:39;4.30;;;2.40;;
60919;SDS011;59039;52.108;19.942;2023-07-29T10:53:54;3.40;;;2.40;;
60919;SDS011;59039;52.108;19.942;2023-07-29T10:56:24;3.30;;;2.30;;
60919;SDS011;59039;52.108;19.942;2023-07-29T10:58:51;3.20;;;2.60;;
60919;SDS011;59039;52.108;19.942;2023-07-29T11:01:32;3.10;;;2.60;;
60919;SDS011;59039;52.108;19.942;2023-07-29T11:04:01;2.80;;;2.30;;
60919;SDS011;59039;52.108;19.942;2023-07-29T11:18:08;3.40;;;2.90;;
60919;SDS011;59039;52.108;19.942;2023-07-29T11:20:37;3.40;;;2.80;;
60919;SDS011;59039;52.108;19.942;2023-07-29T11:23:02;5.30;;;3.20;;
60919;SDS011;59039;52.108;19.942;2023-07-29T11:25:29;4.80;;;2.90;;
60919;SDS011;59039;52.108;19.942;2023-07-29T11:27:57;9.50;;;3.40;;
60919;SDS011;59039;52.108;19.942;2023-07-29T11:30:23;3.10;;;2.80;;
60919;SDS011;59039;52.108;19.942;2023-07-29T11:32:49;3.10;;;2.70;;
60919;SDS011;59039;52.108;19.942;2023-07-29T11:35:15;3.30;;;2.90;;
60919;SDS011;59039;52.108;19.942;2023-07-29T11:37:44;3.00;;;2.50;;
60919;SDS011;59039;52.108;19.942;2023-07-29T11:40:14;5.20;;;3.10;;
60919;SDS011;59039;52.108;19.942;2023-07-29T11:42:43;3.50;;;2.90;;
60919;SDS011;59039;52.108;19.942;2023-07-29T11:45:10;2.60;;;2.40;;
60919;SDS011;59039;52.108;19.942;2023-07-29T11:47:36;4.10;;;2.80;;
60919;SDS011;59039;52.108;19.942;2023-07-29T11:50:02;3.60;;;2.60;;
60919;SDS011;59039;52.108;19.942;2023-07-29T11:52:29;3.90;;;2.70;;
60919;SDS011;59039;52.108;19.942;2023-07-29T11:54:57;3.80;;;2.90;;
60919;SDS011;59039;52.108;19.942;2023-07-29T11:57:23;3.50;;;2.40;;
60919;SDS011;59039;52.108;19.942;2023-07-29T11:59:49;3.00;;;2.50;;
60919;SDS011;59039;52.108;19.942;2023-07-29T12:02:15;3.10;;;2.60;;
60919;SDS011;59039;52.108;19.942;2023-07-29T12:04:43;4.20;;;2.70;;
60919;SDS011;59039;52.108;19.942;2023-07-29T12:07:09;2.80;;;2.40;;
60919;SDS011;59039;52.108;19.942;2023-07-29T12:09:35;2.70;;;2.30;;
60919;SDS011;59039;52.108;19.942;2023-07-29T12:12:02;2.80;;;2.40;;
60919;SDS011;59039;52.108;19.942;2023-07-29T12:14:28;3.20;;;2.60;;
60919;SDS011;59039;52.108;19.942;2023-07-29T12:16:54;2.70;;;2.40;;
60919;SDS011;59039;52.108;19.942;2023-07-29T12:19:19;2.60;;;2.30;;
60919;SDS011;59039;52.108;19.942;2023-07-29T12:21:44;2.80;;;2.50;;
60919;SDS011;59039;52.108;19.942;2023-07-29T12:24:12;5.10;;;3.00;;
60919;SDS011;59039;52.108;19.942;2023-07-29T12:26:38;3.00;;;2.50;;
60919;SDS011;59039;52.108;19.942;2023-07-29T12:29:12;3.20;;;2.90;;
60919;SDS011;59039;52.108;19.942;2023-07-29T12:31:42;3.90;;;2.80;;
60919;SDS011;59039;52.108;19.942;2023-07-29T12:34:07;3.00;;;2.50;;
60919;SDS011;59039;52.108;19.942;2023-07-29T12:36:46;3.10;;;2.60;;
60919;SDS011;59039;52.108;19.942;2023-07-29T12:39:19;4.00;;;2.90;;
60919;SDS011;59039;52.108;19.942;2023-07-29T12:41:45;4.40;;;3.00;;
60919;SDS011;59039;52.108;19.942;2023-07-29T12:44:11;5.40;;;3.00;;
60919;SDS011;59039;52.108;19.942;2023-07-29T12:46:36;5.30;;;2.70;;
60919;SDS011;59039;52.108;19.942;2023-07-29T12:49:01;4.00;;;3.30;;
60919;SDS011;59039;52.108;19.942;2023-07-29T12:51:26;4.10;;;3.30;;
60919;SDS011;59039;52.108;19.942;2023-07-29T12:53:52;3.80;;;3.40;;
60919;SDS011;59039;52.108;19.942;2023-07-29T12:56:18;4.20;;;3.10;;
60919;SDS011;59039;52.108;19.942;2023-07-29T12:58:43;5.40;;;3.10;;
60919;SDS011;59039;52.108;19.942;2023-07-29T13:01:08;4.00;;;3.50;;
60919;SDS011;59039;52.108;19.942;2023-07-29T13:03:33;3.60;;;2.90;;
60919;SDS011;59039;52.108;19.942;2023-07-29T13:05:59;4.80;;;3.40;;
60919;SDS011;59039;52.108;19.942;2023-07-29T13:08:24;5.30;;;3.40;;
60919;SDS011;59039;52.108;19.942;2023-07-29T13:10:49;3.40;;;3.00;;
60919;SDS011;59039;52.108;19.942;2023-07-29T13:13:14;3.40;;;3.10;;
60919;SDS011;59039;52.108;19.942;2023-07-29T13:15:39;4.10;;;3.20;;
60919;SDS011;59039;52.108;19.942;2023-07-29T13:18:05;4.90;;;3.10;;
60919;SDS011;59039;52.108;19.942;2023-07-29T13:20:30;3.70;;;3.20;;
60919;SDS011;59039;52.108;19.942;2023-07-29T13:22:55;3.90;;;3.20;;
60919;SDS011;59039;52.108;19.942;2023-07-29T13:25:20;5.00;;;3.30;;
60919;SDS011;59039;52.108;19.942;2023-07-29T13:27:46;5.60;;;3.70;;
60919;SDS011;59039;52.108;19.942;2023-07-29T13:30:11;4.70;;;3.60;;
60919;SDS011;59039;52.108;19.942;2023-07-29T13:32:36;4.00;;;3.60;;
60919;SDS011;59039;52.108;19.942;2023-07-29T13:35:01;3.90;;;3.30;;
60919;SDS011;59039;52.108;19.942;2023-07-29T13:37:26;3.80;;;3.30;;
60919;SDS011;59039;52.108;19.942;2023-07-29T13:39:52;4.70;;;3.80;;
60919;SDS011;59039;52.108;19.942;2023-07-29T13:42:17;4.10;;;3.50;;
60919;SDS011;59039;52.108;19.942;2023-07-29T13:44:42;7.50;;;4.20;;
60919;SDS011;59039;52.108;19.942;2023-07-29T13:47:07;5.50;;;3.70;;
60919;SDS011;59039;52.108;19.942;2023-07-29T13:49:32;5.10;;;3.50;;
60919;SDS011;59039;52.108;19.942;2023-07-29T13:51:58;4.10;;;3.50;;
60919;SDS011;59039;52.108;19.942;2023-07-29T13:54:23;5.00;;;3.70;;
60919;SDS011;59039;52.108;19.942;2023-07-29T13:56:48;4.30;;;3.40;;
60919;SDS011;59039;52.108;19.942;2023-07-29T13:59:13;3.70;;;3.30;;
60919;SDS011;59039;52.108;19.942;2023-07-29T14:01:38;4.00;;;3.60;;
60919;SDS011;59039;52.108;19.942;2023-07-29T14:04:04;3.90;;;3.50;;
60919;SDS011;59039;52.108;19.942;2023-07-29T14:06:29;3.80;;;3.40;;
60919;SDS011;59039;52.108;19.942;2023-07-29T14:08:54;6.00;;;3.60;;
60919;SDS011;59039;52.108;19.942;2023-07-29T14:11:19;5.30;;;4.00;;
60919;SDS011;59039;52.108;19.942;2023-07-29T14:13:45;4.90;;;3.80;;
60919;SDS011;59039;52.108;19.942;2023-07-29T14:16:10;4.10;;;3.60;;
60919;SDS011;59039;52.108;19.942;2023-07-29T14:18:35;3.90;;;3.50;;
60919;SDS011;59039;52.108;19.942;2023-07-29T14:21:00;4.50;;;3.70;;
60919;SDS011;59039;52.108;19.942;2023-07-29T14:23:25;6.20;;;4.00;;
60919;SDS011;59039;52.108;19.942;2023-07-29T14:25:51;5.30;;;3.60;;
60919;SDS011;59039;52.108;19.942;2023-07-29T14:28:16;5.00;;;3.80;;
60919;SDS011;59039;52.108;19.942;2023-07-29T14:30:41;4.10;;;3.60;;
60919;SDS011;59039;52.108;19.942;2023-07-29T14:33:06;5.40;;;3.50;;
60919;SDS011;59039;52.108;19.942;2023-07-29T14:35:32;7.00;;;4.10;;
60919;SDS011;59039;52.108;19.942;2023-07-29T14:37:57;5.80;;;4.00;;
60919;SDS011;59039;52.108;19.942;2023-07-29T14:40:22;5.00;;;3.80;;
60919;SDS011;59039;52.108;19.942;2023-07-29T14:42:47;5.90;;;4.00;;
60919;SDS011;59039;52.108;19.942;2023-07-29T14:45:13;29.90;;;6.70;;
60919;SDS011;59039;52.108;19.942;2023-07-29T14:47:38;6.00;;;3.40;;
60919;SDS011;59039;52.108;19.942;2023-07-29T14:50:03;4.40;;;3.70;;